sensor_id;sensor_type;location;lat;lon;timestamp;pressure;altitude;pressure_sealevel;temperature;humidity
55590;BME280;41452;42.780;23.116;2022-09-29T00:01:38;93505.28;;;12.53;100.00
55590;BME280;41452;42.780;23.116;2022-09-29T00:04:04;93493.19;;;12.47;100.00
55590;BME280;41452;42.780;23.116;2022-09-29T00:06:29;93497.38;;;12.48;100.00
55590;BME280;41452;42.780;23.116;2022-09-29T00:08:57;93525.31;;;12.65;100.00
55590;BME280;41452;42.780;23.116;2022-09-29T00:11:22;93502.13;;;12.51;100.00
55590;BME280;41452;42.780;23.116;2022-09-29T00:13:48;93516.88;;;12.63;100.00
55590;BME280;41452;42.780;23.116;2022-09-29T00:16:14;93496.63;;;12.53;100.00
55590;BME280;41452;42.780;23.116;2022-09-29T00:18:39;93492.13;;;12.48;100.00
55590;BME280;41452;42.780;23.116;2022-09-29T00:21:13;93477.13;;;12.44;100.00
55590;BME280;41452;42.780;23.116;2022-09-29T00:23:39;93519.53;;;12.78;100.00
55590;BME280;41452;42.780;23.116;2022-09-29T00:26:11;93520.06;;;12.85;100.00
55590;BME280;41452;42.780;23.116;2022-09-29T00:28:39;93493.19;;;12.73;100.00
55590;BME280;41452;42.780;23.116;2022-09-29T00:31:07;93520.59;;;12.87;100.00
55590;BME280;41452;42.780;23.116;2022-09-29T00:33:34;93447.63;;;12.47;100.00
55590;BME280;41452;42.780;23.116;2022-09-29T00:36:04;93498.19;;;12.90;100.00
55590;BME280;41452;42.780;23.116;2022-09-29T00:38:31;93466.84;;;12.73;100.00
55590;BME280;41452;42.780;23.116;2022-09-29T00:40:57;93470.56;;;12.67;100.00
55590;BME280;41452;42.780;23.116;2022-09-29T00:43:44;93459.47;;;12.70;100.00
55590;BME280;41452;42.780;23.116;2022-09-29T00:46:09;93460.28;;;12.70;100.00
55590;BME280;41452;42.780;23.116;2022-09-29T00:48:37;93449.22;;;12.63;100.00
55590;BME280;41452;42.780;23.116;2022-09-29T00:51:03;93511.59;;;13.04;100.00
55590;BME280;41452;42.780;23.116;2022-09-29T00:53:28;93460.53;;;12.74;100.00
55590;BME280;41452;42.780;23.116;2022-09-29T00:56:09;93467.88;;;12.82;100.00
55590;BME280;41452;42.780;23.116;2022-09-29T00:58:53;93512.66;;;13.08;100.00
55590;BME280;41452;42.780;23.116;2022-09-29T01:01:24;93460.53;;;12.79;100.00
55590;BME280;41452;42.780;23.116;2022-09-29T01:03:53;93511.34;;;13.10;100.00
55590;BME280;41452;42.780;23.116;2022-09-29T01:06:27;93505.81;;;13.12;100.00
55590;BME280;41452;42.780;23.116;2022-09-29T01:08:58;93511.06;;;13.17;100.00
55590;BME280;41452;42.780;23.116;2022-09-29T01:11:25;93501.56;;;13.21;100.00
55590;BME280;41452;42.780;23.116;2022-09-29T01:13:52;93507.34;;;13.23;100.00
55590;BME280;41452;42.780;23.116;2022-09-29T01:16:18;93456.81;;;12.90;100.00
55590;BME280;41452;42.780;23.116;2022-09-29T01:18:45;93505.28;;;13.10;100.00
55590;BME280;41452;42.780;23.116;2022-09-29T01:29:53;93520.59;;;13.03;100.00
55590;BME280;41452;42.780;23.116;2022-09-29T01:37:58;93516.34;;;13.07;100.00
55590;BME280;41452;42.780;23.116;2022-09-29T01:40:35;93484.22;;;12.84;100.00
55590;BME280;41452;42.780;23.116;2022-09-29T01:43:11;93495.81;;;12.83;100.00
55590;BME280;41452;42.780;23.116;2022-09-29T01:45:46;93531.13;;;13.03;100.00
55590;BME280;41452;42.780;23.116;2022-09-29T01:48:24;93529.78;;;13.05;100.00
55590;BME280;41452;42.780;23.116;2022-09-29T01:50:54;93515.31;;;13.03;100.00
55590;BME280;41452;42.780;23.116;2022-09-29T01:53:28;93485.53;;;12.82;100.00
55590;BME280;41452;42.780;23.116;2022-09-29T01:56:01;93459.72;;;12.73;100.00
55590;BME280;41452;42.780;23.116;2022-09-29T01:58:52;93515.00;;;13.20;100.00
55590;BME280;41452;42.780;23.116;2022-09-29T02:01:21;93495.78;;;13.04;100.00
55590;BME280;41452;42.780;23.116;2022-09-29T02:03:56;93521.09;;;13.25;100.00
55590;BME280;41452;42.780;23.116;2022-09-29T02:06:28;93480.53;;;13.01;100.00
55590;BME280;41452;42.780;23.116;2022-09-29T02:08:56;93506.31;;;13.14;100.00
55590;BME280;41452;42.780;23.116;2022-09-29T02:11:23;93495.25;;;13.12;100.00
55590;BME280;41452;42.780;23.116;2022-09-29T02:14:00;93505.50;;;13.34;100.00
55590;BME280;41452;42.780;23.116;2022-09-29T02:16:31;93500.78;;;13.41;100.00
55590;BME280;41452;42.780;23.116;2022-09-29T02:19:04;93490.72;;;13.48;100.00
55590;BME280;41452;42.780;23.116;2022-09-29T02:21:31;93472.53;;;13.47;100.00
55590;BME280;41452;42.780;23.116;2022-09-29T02:23:56;93457.78;;;13.41;100.00
55590;BME280;41452;42.780;23.116;2022-09-29T02:26:23;93487.81;;;13.50;100.00
55590;BME280;41452;42.780;23.116;2022-09-29T02:28:50;93495.44;;;13.52;100.00
55590;BME280;41452;42.780;23.116;2022-09-29T02:31:16;93488.88;;;13.54;100.00
55590;BME280;41452;42.780;23.116;2022-09-29T02:33:42;93473.31;;;13.47;100.00
55590;BME280;41452;42.780;23.116;2022-09-29T02:39:04;93499.94;;;13.51;100.00
55590;BME280;41452;42.780;23.116;2022-09-29T02:42:21;93495.19;;;13.48;100.00
55590;BME280;41452;42.780;23.116;2022-09-29T02:50:34;93499.44;;;13.39;100.00
55590;BME280;41452;42.780;23.116;2022-09-29T02:53:23;93484.19;;;13.15;99.85
55590;BME280;41452;42.780;23.116;2022-09-29T02:59:08;93492.63;;;13.12;99.59
55590;BME280;41452;42.780;23.116;2022-09-29T03:01:46;93515.81;;;13.20;99.42
55590;BME280;41452;42.780;23.116;2022-09-29T03:04:11;93470.81;;;12.70;99.29
55590;BME280;41452;42.780;23.116;2022-09-29T03:06:37;93529.00;;;13.05;99.39
55590;BME280;41452;42.780;23.116;2022-09-29T03:09:02;93512.16;;;12.85;99.39
55590;BME280;41452;42.780;23.116;2022-09-29T03:11:27;93535.88;;;12.96;98.94
55590;BME280;41452;42.780;23.116;2022-09-29T03:13:53;93544.81;;;12.94;98.30
55590;BME280;41452;42.780;23.116;2022-09-29T03:16:19;93546.16;;;12.92;98.44
55590;BME280;41452;42.780;23.116;2022-09-29T03:18:44;93546.16;;;12.87;98.29
55590;BME280;41452;42.780;23.116;2022-09-29T03:21:10;93532.97;;;12.66;98.55
55590;BME280;41452;42.780;23.116;2022-09-29T03:23:36;93531.38;;;12.65;98.96
55590;BME280;41452;42.780;23.116;2022-09-29T03:26:01;93530.59;;;12.65;98.67
55590;BME280;41452;42.780;23.116;2022-09-29T03:28:27;93526.63;;;12.62;99.18
55590;BME280;41452;42.780;23.116;2022-09-29T03:30:52;93543.75;;;12.70;98.65
55590;BME280;41452;42.780;23.116;2022-09-29T03:33:19;93562.22;;;12.80;98.64
55590;BME280;41452;42.780;23.116;2022-09-29T03:35:45;93529.25;;;12.57;98.84
55590;BME280;41452;42.780;23.116;2022-09-29T03:38:10;93558.50;;;12.66;98.79
55590;BME280;41452;42.780;23.116;2022-09-29T03:40:35;93576.47;;;12.79;98.71
55590;BME280;41452;42.780;23.116;2022-09-29T03:43:01;93569.59;;;12.78;98.84
55590;BME280;41452;42.780;23.116;2022-09-29T03:45:26;93552.47;;;12.70;98.93
55590;BME280;41452;42.780;23.116;2022-09-29T03:47:51;93553.25;;;12.66;98.55
55590;BME280;41452;42.780;23.116;2022-09-29T03:50:17;93532.97;;;12.56;98.31
55590;BME280;41452;42.780;23.116;2022-09-29T03:52:42;93553.78;;;12.73;97.97
55590;BME280;41452;42.780;23.116;2022-09-29T03:55:08;93553.75;;;12.63;97.95
55590;BME280;41452;42.780;23.116;2022-09-29T03:57:33;93549.56;;;12.67;97.81
55590;BME280;41452;42.780;23.116;2022-09-29T03:59:59;93536.91;;;12.59;97.87
55590;BME280;41452;42.780;23.116;2022-09-29T04:02:24;93543.78;;;12.60;98.02
55590;BME280;41452;42.780;23.116;2022-09-29T04:04:49;93547.44;;;12.59;98.16
55590;BME280;41452;42.780;23.116;2022-09-29T04:07:15;93545.59;;;12.44;98.54
55590;BME280;41452;42.780;23.116;2022-09-29T04:09:40;93478.91;;;12.07;98.72
55590;BME280;41452;42.780;23.116;2022-09-29T04:12:06;93515.25;;;12.31;98.92
55590;BME280;41452;42.780;23.116;2022-09-29T04:14:31;93535.84;;;12.44;98.63
55590;BME280;41452;42.780;23.116;2022-09-29T04:16:57;93473.88;;;12.01;98.52
55590;BME280;41452;42.780;23.116;2022-09-29T04:19:22;93513.69;;;12.25;98.45
55590;BME280;41452;42.780;23.116;2022-09-29T04:21:48;93443.84;;;11.86;98.18
55590;BME280;41452;42.780;23.116;2022-09-29T04:24:14;93518.72;;;12.36;97.88
55590;BME280;41452;42.780;23.116;2022-09-29T04:26:39;93526.34;;;12.38;98.01
55590;BME280;41452;42.780;23.116;2022-09-29T04:29:05;93521.63;;;12.35;97.61
55590;BME280;41452;42.780;23.116;2022-09-29T04:31:31;93476.50;;;12.01;97.63
55590;BME280;41452;42.780;23.116;2022-09-29T04:33:57;93444.09;;;11.74;97.22
55590;BME280;41452;42.780;23.116;2022-09-29T04:36:22;93486.50;;;11.98;97.06
55590;BME280;41452;42.780;23.116;2022-09-29T04:38:48;93517.09;;;12.20;96.57
55590;BME280;41452;42.780;23.116;2022-09-29T04:41:15;93487.31;;;12.04;96.28
55590;BME280;41452;42.780;23.116;2022-09-29T04:43:41;93494.69;;;12.07;96.20
55590;BME280;41452;42.780;23.116;2022-09-29T04:46:07;93492.31;;;12.01;96.19
55590;BME280;41452;42.780;23.116;2022-09-29T04:48:33;93523.66;;;12.12;96.68
55590;BME280;41452;42.780;23.116;2022-09-29T04:50:58;93495.66;;;11.80;97.07
55590;BME280;41452;42.780;23.116;2022-09-29T04:53:24;93493.00;;;11.75;97.50
55590;BME280;41452;42.780;23.116;2022-09-29T04:55:49;93480.31;;;11.57;97.76
55590;BME280;41452;42.780;23.116;2022-09-29T04:58:15;93492.91;;;11.50;98.60
55590;BME280;41452;42.780;23.116;2022-09-29T05:00:40;93501.31;;;11.52;99.26
55590;BME280;41452;42.780;23.116;2022-09-29T05:03:06;93529.75;;;11.65;100.00
55590;BME280;41452;42.780;23.116;2022-09-29T05:05:31;93514.00;;;11.65;100.00
55590;BME280;41452;42.780;23.116;2022-09-29T05:07:56;93497.09;;;11.51;100.00
55590;BME280;41452;42.780;23.116;2022-09-29T05:10:24;93517.13;;;11.57;100.00
55590;BME280;41452;42.780;23.116;2022-09-29T05:12:50;93534.03;;;11.71;100.00
55590;BME280;41452;42.780;23.116;2022-09-29T05:15:17;93502.84;;;11.37;100.00
55590;BME280;41452;42.780;23.116;2022-09-29T05:17:43;93523.13;;;11.47;100.00
55590;BME280;41452;42.780;23.116;2022-09-29T05:20:09;93508.13;;;11.43;100.00
55590;BME280;41452;42.780;23.116;2022-09-29T05:22:34;93556.69;;;11.83;100.00
55590;BME280;41452;42.780;23.116;2022-09-29T05:25:00;93554.59;;;11.90;100.00
55590;BME280;41452;42.780;23.116;2022-09-29T05:27:25;93534.06;;;11.82;100.00
55590;BME280;41452;42.780;23.116;2022-09-29T05:29:51;93529.88;;;11.86;100.00
55590;BME280;41452;42.780;23.116;2022-09-29T05:32:16;93533.59;;;11.95;100.00
55590;BME280;41452;42.780;23.116;2022-09-29T05:34:42;93554.22;;;12.13;100.00
55590;BME280;41452;42.780;23.116;2022-09-29T05:37:08;93579.25;;;12.42;100.00
55590;BME280;41452;42.780;23.116;2022-09-29T05:39:34;93569.56;;;12.52;100.00
55590;BME280;41452;42.780;23.116;2022-09-29T05:42:02;93565.88;;;12.64;100.00
55590;BME280;41452;42.780;23.116;2022-09-29T05:44:31;93525.31;;;12.49;100.00
55590;BME280;41452;42.780;23.116;2022-09-29T05:46:56;93481.31;;;12.40;100.00
55590;BME280;41452;42.780;23.116;2022-09-29T05:49:22;93549.06;;;12.96;100.00
55590;BME280;41452;42.780;23.116;2022-09-29T05:51:47;93556.41;;;13.19;100.00
55590;BME280;41452;42.780;23.116;2022-09-29T05:54:13;93529.25;;;13.24;100.00
55590;BME280;41452;42.780;23.116;2022-09-29T05:56:38;93528.22;;;13.35;100.00
55590;BME280;41452;42.780;23.116;2022-09-29T05:59:04;93554.81;;;13.59;100.00
55590;BME280;41452;42.780;23.116;2022-09-29T06:01:31;93494.16;;;13.28;100.00
55590;BME280;41452;42.780;23.116;2022-09-29T06:03:56;93549.44;;;13.80;100.00
55590;BME280;41452;42.780;23.116;2022-09-29T06:06:25;93560.47;;;13.97;100.00
55590;BME280;41452;42.780;23.116;2022-09-29T06:08:51;93561.97;;;14.14;100.00
55590;BME280;41452;42.780;23.116;2022-09-29T06:11:22;93561.41;;;14.27;100.00
55590;BME280;41452;42.780;23.116;2022-09-29T06:13:50;93557.91;;;14.37;100.00
55590;BME280;41452;42.780;23.116;2022-09-29T06:16:18;93560.22;;;14.49;100.00
55590;BME280;41452;42.780;23.116;2022-09-29T06:18:44;93543.03;;;14.51;100.00
55590;BME280;41452;42.780;23.116;2022-09-29T06:21:12;93554.31;;;14.67;100.00
55590;BME280;41452;42.780;23.116;2022-09-29T06:23:39;93566.19;;;14.75;100.00
55590;BME280;41452;42.780;23.116;2022-09-29T06:26:09;93536.44;;;14.59;100.00
55590;BME280;41452;42.780;23.116;2022-09-29T06:28:35;93538.19;;;14.69;100.00
55590;BME280;41452;42.780;23.116;2022-09-29T06:31:04;93533.38;;;14.76;100.00
55590;BME280;41452;42.780;23.116;2022-09-29T06:33:31;93538.78;;;15.00;100.00
55590;BME280;41452;42.780;23.116;2022-09-29T06:35:57;93568.09;;;15.33;97.82
55590;BME280;41452;42.780;23.116;2022-09-29T06:38:42;93571.63;;;15.52;94.92
55590;BME280;41452;42.780;23.116;2022-09-29T06:41:08;93558.56;;;15.61;98.90
55590;BME280;41452;42.780;23.116;2022-09-29T06:43:34;93574.28;;;15.82;100.00
55590;BME280;41452;42.780;23.116;2022-09-29T06:45:59;93584.59;;;15.83;99.97
55590;BME280;41452;42.780;23.116;2022-09-29T06:48:25;93581.91;;;15.88;98.42
55590;BME280;41452;42.780;23.116;2022-09-29T06:50:50;93531.69;;;15.49;94.81
55590;BME280;41452;42.780;23.116;2022-09-29T06:53:16;93589.03;;;15.88;90.73
55590;BME280;41452;42.780;23.116;2022-09-29T06:55:41;93563.75;;;15.76;89.42
55590;BME280;41452;42.780;23.116;2022-09-29T06:58:07;93558.63;;;15.85;90.26
55590;BME280;41452;42.780;23.116;2022-09-29T07:00:33;93583.75;;;16.12;88.44
55590;BME280;41452;42.780;23.116;2022-09-29T07:02:59;93585.53;;;16.16;90.34
55590;BME280;41452;42.780;23.116;2022-09-29T07:05:24;93583.63;;;16.22;89.14
55590;BME280;41452;42.780;23.116;2022-09-29T07:07:50;93545.88;;;16.11;88.58
55590;BME280;41452;42.780;23.116;2022-09-29T07:10:15;93527.63;;;16.10;84.87
55590;BME280;41452;42.780;23.116;2022-09-29T07:12:41;93583.78;;;16.50;82.47
55590;BME280;41452;42.780;23.116;2022-09-29T07:15:09;93567.88;;;16.50;84.37
55590;BME280;41452;42.780;23.116;2022-09-29T07:17:34;93549.41;;;16.45;85.03
55590;BME280;41452;42.780;23.116;2022-09-29T07:20:00;93523.94;;;16.49;87.20
55590;BME280;41452;42.780;23.116;2022-09-29T07:22:25;93514.75;;;16.41;84.12
55590;BME280;41452;42.780;23.116;2022-09-29T07:24:51;93520.41;;;16.53;89.23
55590;BME280;41452;42.780;23.116;2022-09-29T07:27:18;93538.75;;;16.69;86.42
55590;BME280;41452;42.780;23.116;2022-09-29T07:29:49;93557.03;;;16.89;87.09
55590;BME280;41452;42.780;23.116;2022-09-29T07:32:14;93547.00;;;16.86;86.47
55590;BME280;41452;42.780;23.116;2022-09-29T07:34:39;93557.16;;;16.98;86.69
55590;BME280;41452;42.780;23.116;2022-09-29T07:37:05;93567.09;;;17.06;88.03
55590;BME280;41452;42.780;23.116;2022-09-29T07:39:31;93549.72;;;17.00;85.55
55590;BME280;41452;42.780;23.116;2022-09-29T07:41:56;93535.84;;;17.03;84.96
55590;BME280;41452;42.780;23.116;2022-09-29T07:44:22;93544.34;;;17.19;85.19
55590;BME280;41452;42.780;23.116;2022-09-29T07:46:48;93598.31;;;17.61;81.09
55590;BME280;41452;42.780;23.116;2022-09-29T07:49:14;93573.53;;;17.52;81.85
55590;BME280;41452;42.780;23.116;2022-09-29T07:51:39;93596.28;;;17.72;81.37
55590;BME280;41452;42.780;23.116;2022-09-29T07:54:04;93602.00;;;17.79;76.56
55590;BME280;41452;42.780;23.116;2022-09-29T07:56:30;93583.19;;;17.76;79.16
55590;BME280;41452;42.780;23.116;2022-09-29T07:58:57;93599.09;;;17.95;80.39
55590;BME280;41452;42.780;23.116;2022-09-29T08:01:23;93632.06;;;18.21;77.69
55590;BME280;41452;42.780;23.116;2022-09-29T08:03:53;93597.72;;;18.11;77.10
55590;BME280;41452;42.780;23.116;2022-09-29T08:06:19;93604.22;;;18.33;77.11
55590;BME280;41452;42.780;23.116;2022-09-29T08:08:46;93609.53;;;18.47;76.16
55590;BME280;41452;42.780;23.116;2022-09-29T08:11:14;93594.34;;;18.47;76.50
55590;BME280;41452;42.780;23.116;2022-09-29T08:13:40;93589.66;;;18.44;75.25
55590;BME280;41452;42.780;23.116;2022-09-29T08:16:09;93619.94;;;18.71;79.10
55590;BME280;41452;42.780;23.116;2022-09-29T08:18:35;93624.44;;;18.70;76.41
55590;BME280;41452;42.780;23.116;2022-09-29T08:21:02;93625.84;;;18.68;77.83
55590;BME280;41452;42.780;23.116;2022-09-29T08:23:27;93601.16;;;18.53;76.85
55590;BME280;41452;42.780;23.116;2022-09-29T08:26:00;93612.28;;;18.55;75.56
55590;BME280;41452;42.780;23.116;2022-09-29T08:28:27;93606.94;;;18.55;74.90
55590;BME280;41452;42.780;23.116;2022-09-29T08:30:52;93614.00;;;18.60;79.85
55590;BME280;41452;42.780;23.116;2022-09-29T08:33:18;93586.38;;;18.47;79.78
55590;BME280;41452;42.780;23.116;2022-09-29T08:35:43;93598.78;;;18.52;73.17
55590;BME280;41452;42.780;23.116;2022-09-29T08:38:09;93591.41;;;18.49;72.29
55590;BME280;41452;42.780;23.116;2022-09-29T08:40:34;93580.94;;;18.52;73.79
55590;BME280;41452;42.780;23.116;2022-09-29T08:43:09;93581.03;;;18.61;73.07
55590;BME280;41452;42.780;23.116;2022-09-29T08:45:46;93607.72;;;18.84;71.93
55590;BME280;41452;42.780;23.116;2022-09-29T08:48:22;93615.78;;;18.92;69.37
55590;BME280;41452;42.780;23.116;2022-09-29T08:50:51;93630.34;;;18.95;68.94
55590;BME280;41452;42.780;23.116;2022-09-29T08:53:22;93593.81;;;18.73;73.57
55590;BME280;41452;42.780;23.116;2022-09-29T08:55:52;93624.13;;;18.99;66.38
55590;BME280;41452;42.780;23.116;2022-09-29T08:58:19;93597.06;;;18.84;69.83
55590;BME280;41452;42.780;23.116;2022-09-29T09:06:23;93600.13;;;19.13;66.48
55590;BME280;41452;42.780;23.116;2022-09-29T09:09:09;93626.44;;;19.37;70.06
55590;BME280;41452;42.780;23.116;2022-09-29T09:25:02;93637.63;;;19.48;70.55
55590;BME280;41452;42.780;23.116;2022-09-29T09:27:38;93607.94;;;19.32;69.99
55590;BME280;41452;42.780;23.116;2022-09-29T09:30:25;93631.94;;;19.64;66.20
55590;BME280;41452;42.780;23.116;2022-09-29T09:33:01;93606.56;;;19.66;66.48
55590;BME280;41452;42.780;23.116;2022-09-29T09:35:38;93561.25;;;19.57;65.60
55590;BME280;41452;42.780;23.116;2022-09-29T09:38:14;93620.94;;;20.10;65.48
55590;BME280;41452;42.780;23.116;2022-09-29T09:40:44;93627.28;;;20.32;66.53
55590;BME280;41452;42.780;23.116;2022-09-29T09:43:22;93606.78;;;20.41;67.66
55590;BME280;41452;42.780;23.116;2022-09-29T09:46:07;93630.22;;;20.62;63.54
55590;BME280;41452;42.780;23.116;2022-09-29T09:48:41;93601.44;;;20.50;59.46
55590;BME280;41452;42.780;23.116;2022-09-29T09:51:31;93601.81;;;20.66;61.62
55590;BME280;41452;42.780;23.116;2022-09-29T09:54:00;93618.03;;;20.87;61.48
55590;BME280;41452;42.780;23.116;2022-09-29T09:56:49;93618.81;;;20.96;62.00
55590;BME280;41452;42.780;23.116;2022-09-29T09:59:25;93622.44;;;20.92;58.79
55590;BME280;41452;42.780;23.116;2022-09-29T10:01:55;93628.41;;;20.88;58.94
55590;BME280;41452;42.780;23.116;2022-09-29T10:04:20;93599.19;;;20.75;59.73
55590;BME280;41452;42.780;23.116;2022-09-29T10:06:48;93640.84;;;21.11;62.11
55590;BME280;41452;42.780;23.116;2022-09-29T10:09:14;93632.34;;;21.08;61.12
55590;BME280;41452;42.780;23.116;2022-09-29T10:11:41;93616.94;;;20.97;58.49
55590;BME280;41452;42.780;23.116;2022-09-29T10:14:23;93620.41;;;21.06;58.05
55590;BME280;41452;42.780;23.116;2022-09-29T10:16:57;93587.59;;;20.97;57.41
55590;BME280;41452;42.780;23.116;2022-09-29T10:22:18;93616.16;;;21.40;60.29
55590;BME280;41452;42.780;23.116;2022-09-29T10:24:43;93609.88;;;21.36;56.31
55590;BME280;41452;42.780;23.116;2022-09-29T10:27:09;93578.94;;;21.26;55.33
55590;BME280;41452;42.780;23.116;2022-09-29T10:29:41;93532.78;;;21.08;56.61
55590;BME280;41452;42.780;23.116;2022-09-29T10:32:12;93593.38;;;21.60;64.83
55590;BME280;41452;42.780;23.116;2022-09-29T10:34:45;93618.00;;;21.83;57.91
55590;BME280;41452;42.780;23.116;2022-09-29T10:37:21;93616.59;;;21.86;56.15
55590;BME280;41452;42.780;23.116;2022-09-29T10:39:49;93617.81;;;21.88;56.61
55590;BME280;41452;42.780;23.116;2022-09-29T10:42:22;93617.19;;;21.91;53.87
55590;BME280;41452;42.780;23.116;2022-09-29T10:44:52;93620.34;;;21.93;56.52
55590;BME280;41452;42.780;23.116;2022-09-29T10:47:19;93619.06;;;21.99;57.94
55590;BME280;41452;42.780;23.116;2022-09-29T10:49:45;93591.28;;;21.83;55.11
55590;BME280;41452;42.780;23.116;2022-09-29T10:52:24;93611.69;;;21.96;54.81
55590;BME280;41452;42.780;23.116;2022-09-29T10:54:58;93611.34;;;22.07;54.57
55590;BME280;41452;42.780;23.116;2022-09-29T10:57:26;93600.66;;;22.07;53.63
55590;BME280;41452;42.780;23.116;2022-09-29T10:59:54;93530.03;;;21.69;58.02
55590;BME280;41452;42.780;23.116;2022-09-29T11:02:32;93567.13;;;22.09;54.58
55590;BME280;41452;42.780;23.116;2022-09-29T11:05:14;93575.28;;;22.13;53.00
55590;BME280;41452;42.780;23.116;2022-09-29T11:07:45;93602.91;;;22.34;54.90
55590;BME280;41452;42.780;23.116;2022-09-29T11:10:37;93601.53;;;22.28;54.66
55590;BME280;41452;42.780;23.116;2022-09-29T11:15:43;93587.19;;;22.24;54.99
55590;BME280;41452;42.780;23.116;2022-09-29T11:18:22;93601.22;;;22.30;53.79
55590;BME280;41452;42.780;23.116;2022-09-29T11:20:58;93544.09;;;21.96;57.17
55590;BME280;41452;42.780;23.116;2022-09-29T11:24:05;93589.41;;;22.31;53.91
55590;BME280;41452;42.780;23.116;2022-09-29T11:26:46;93619.22;;;22.42;52.35
55590;BME280;41452;42.780;23.116;2022-09-29T11:40:30;93558.00;;;22.10;52.69
55590;BME280;41452;42.780;23.116;2022-09-29T11:43:09;93593.34;;;22.25;50.77
55590;BME280;41452;42.780;23.116;2022-09-29T11:51:00;93612.56;;;22.18;56.19
55590;BME280;41452;42.780;23.116;2022-09-29T12:02:08;93610.34;;;22.29;52.70
55590;BME280;41452;42.780;23.116;2022-09-29T12:10:20;93610.44;;;22.41;56.09
55590;BME280;41452;42.780;23.116;2022-09-29T12:12:59;93585.31;;;22.33;53.30
55590;BME280;41452;42.780;23.116;2022-09-29T12:15:41;93582.25;;;22.44;54.00
55590;BME280;41452;42.780;23.116;2022-09-29T12:18:18;93572.22;;;22.40;51.70
55590;BME280;41452;42.780;23.116;2022-09-29T12:20:49;93589.91;;;22.54;51.06
55590;BME280;41452;42.780;23.116;2022-09-29T12:23:18;93592.72;;;22.57;53.50
55590;BME280;41452;42.780;23.116;2022-09-29T12:25:58;93560.25;;;22.38;52.95
55590;BME280;41452;42.780;23.116;2022-09-29T12:28:43;93594.63;;;22.57;53.92
55590;BME280;41452;42.780;23.116;2022-09-29T12:31:14;93572.84;;;22.37;53.13
55590;BME280;41452;42.780;23.116;2022-09-29T12:33:44;93574.28;;;22.35;53.26
55590;BME280;41452;42.780;23.116;2022-09-29T12:36:33;93614.81;;;22.46;52.14
55590;BME280;41452;42.780;23.116;2022-09-29T12:41:48;93585.53;;;22.11;51.41
55590;BME280;41452;42.780;23.116;2022-09-29T12:47:03;93595.31;;;22.07;53.02
55590;BME280;41452;42.780;23.116;2022-09-29T12:49:38;93619.28;;;22.24;55.25
55590;BME280;41452;42.780;23.116;2022-09-29T12:52:14;93604.53;;;22.18;57.73
55590;BME280;41452;42.780;23.116;2022-09-29T12:54:52;93601.72;;;22.14;54.45
55590;BME280;41452;42.780;23.116;2022-09-29T12:57:24;93595.94;;;22.03;54.91
55590;BME280;41452;42.780;23.116;2022-09-29T12:59:57;93607.28;;;21.92;53.13
55590;BME280;41452;42.780;23.116;2022-09-29T13:03:00;93628.31;;;22.11;54.46
55590;BME280;41452;42.780;23.116;2022-09-29T13:14:29;93632.78;;;21.89;56.66
55590;BME280;41452;42.780;23.116;2022-09-29T13:20:05;93631.19;;;21.88;55.68
55590;BME280;41452;42.780;23.116;2022-09-29T13:28:47;93628.38;;;21.76;53.88
55590;BME280;41452;42.780;23.116;2022-09-29T13:31:20;93594.16;;;21.43;55.06
55590;BME280;41452;42.780;23.116;2022-09-29T13:33:57;93628.09;;;21.69;57.11
55590;BME280;41452;42.780;23.116;2022-09-29T13:36:31;93611.78;;;21.53;54.13
55590;BME280;41452;42.780;23.116;2022-09-29T13:39:03;93616.81;;;21.54;55.13
55590;BME280;41452;42.780;23.116;2022-09-29T13:49:02;93649.31;;;21.65;55.96
55590;BME280;41452;42.780;23.116;2022-09-29T13:54:19;93646.66;;;21.56;57.60
55590;BME280;41452;42.780;23.116;2022-09-29T13:59:30;93565.94;;;20.81;62.30
55590;BME280;41452;42.780;23.116;2022-09-29T14:01:57;93637.38;;;21.27;63.43
55590;BME280;41452;42.780;23.116;2022-09-29T14:04:45;93646.81;;;21.25;63.84
55590;BME280;41452;42.780;23.116;2022-09-29T14:07:42;93657.63;;;21.20;62.15
55590;BME280;41452;42.780;23.116;2022-09-29T14:18:41;93613.94;;;20.81;61.65
55590;BME280;41452;42.780;23.116;2022-09-29T14:21:21;93658.41;;;21.03;61.49
55590;BME280;41452;42.780;23.116;2022-09-29T14:23:58;93644.56;;;20.92;62.77
55590;BME280;41452;42.780;23.116;2022-09-29T14:26:46;93654.47;;;21.00;61.83
55590;BME280;41452;42.780;23.116;2022-09-29T14:29:25;93640.47;;;20.77;62.18
55590;BME280;41452;42.780;23.116;2022-09-29T14:31:55;93657.28;;;20.86;62.28
55590;BME280;41452;42.780;23.116;2022-09-29T14:34:23;93619.97;;;20.55;64.13
55590;BME280;41452;42.780;23.116;2022-09-29T14:36:53;93659.78;;;20.83;63.86
55590;BME280;41452;42.780;23.116;2022-09-29T14:39:21;93641.06;;;20.65;65.74
55590;BME280;41452;42.780;23.116;2022-09-29T14:41:47;93670.13;;;20.76;63.92
55590;BME280;41452;42.780;23.116;2022-09-29T14:50:28;93667.28;;;20.72;65.53
55590;BME280;41452;42.780;23.116;2022-09-29T14:53:42;93632.06;;;20.52;66.71
55590;BME280;41452;42.780;23.116;2022-09-29T14:56:44;93637.41;;;20.52;67.19
55590;BME280;41452;42.780;23.116;2022-09-29T15:04:30;93583.50;;;19.84;66.29
55590;BME280;41452;42.780;23.116;2022-09-29T15:07:03;93661.00;;;20.28;66.48
55590;BME280;41452;42.780;23.116;2022-09-29T15:09:34;93676.09;;;20.32;66.43
55590;BME280;41452;42.780;23.116;2022-09-29T15:12:01;93640.53;;;20.06;66.89
55590;BME280;41452;42.780;23.116;2022-09-29T15:14:31;93638.59;;;19.98;66.72
55590;BME280;41452;42.780;23.116;2022-09-29T15:17:18;93690.94;;;20.25;66.49
55590;BME280;41452;42.780;23.116;2022-09-29T15:19:57;93692.94;;;20.19;65.91
55590;BME280;41452;42.780;23.116;2022-09-29T15:27:50;93703.44;;;20.16;68.06